createdAt,value
2019-05-05T00:00:04.843Z,95.8556
2019-05-05T00:01:08.290Z,96.2951
2019-05-05T00:02:14.366Z,96.3882
2019-05-05T00:03:17.313Z,96.3745
2019-05-05T00:04:21.333Z,96.7071
2019-05-05T00:05:24.694Z,96.7727
2019-05-05T00:06:28.308Z,97.1649
2019-05-05T00:07:31.271Z,96.8643
2019-05-05T00:08:35.152Z,96.2905
2019-05-05T00:09:39.285Z,96.3546
2019-05-05T00:10:42.256Z,96.4691
2019-05-05T00:11:46.301Z,96.6522
2019-05-05T00:12:49.323Z,96.4935
2019-05-05T00:13:55.074Z,96.8490
2019-05-05T00:14:57.275Z,96.8078
2019-05-05T00:16:00.339Z,96.6430
2019-05-05T00:17:05.348Z,97.0733
2019-05-05T00:18:08.307Z,97.0871
2019-05-05T00:19:11.275Z,96.8231
2019-05-05T00:20:14.573Z,96.8414
2019-05-05T00:21:18.302Z,96.9589
2019-05-05T00:22:21.362Z,96.9741
2019-05-05T00:23:25.125Z,97.0977
2019-05-05T00:24:29.282Z,97.0016
2019-05-05T00:25:34.195Z,96.8780
2019-05-05T00:26:38.303Z,97.0733
2019-05-05T00:27:41.354Z,97.2061
2019-05-05T00:28:45.271Z,97.1649
2019-05-05T00:29:48.288Z,97.3617
2019-05-05T00:30:51.289Z,97.7249
2019-05-05T00:31:54.747Z,97.4319
2019-05-05T00:32:58.343Z,97.7844
2019-05-05T00:34:02.293Z,97.9171
2019-05-05T00:35:04.388Z,97.5448
2019-05-05T00:36:08.288Z,97.7645
2019-05-05T00:37:10.329Z,97.7142
2019-05-05T00:38:14.291Z,97.9812
2019-05-05T00:39:18.314Z,97.8012
2019-05-05T00:40:21.270Z,97.7554
2019-05-05T00:41:25.505Z,97.9065
2019-05-05T00:42:29.322Z,97.8057
2019-05-05T00:43:34.517Z,97.3129
2019-05-05T00:44:38.303Z,97.5738
2019-05-05T00:45:41.283Z,97.8851
2019-05-05T00:46:45.303Z,97.9202
2019-05-05T00:47:48.294Z,98.1414
2019-05-05T00:48:52.370Z,98.2406
2019-05-05T00:49:56.267Z,98.2269
2019-05-05T00:51:00.285Z,98.2452
2019-05-05T00:52:05.090Z,98.4649
2019-05-05T00:53:08.285Z,98.4298
2019-05-05T00:54:12.328Z,98.4573
2019-05-05T00:55:15.273Z,98.4237
2019-05-05T00:56:19.320Z,98.3337
2019-05-05T00:57:24.224Z,98.3780
2019-05-05T00:58:28.335Z,98.5534
2019-05-05T00:59:31.304Z,98.5519
2019-05-05T01:00:34.933Z,98.5290
2019-05-05T01:01:38.298Z,98.7533
2019-05-05T01:02:41.312Z,98.7549
2019-05-05T01:03:45.312Z,98.8998
2019-05-05T01:04:48.300Z,98.7457
2019-05-05T01:05:52.304Z,98.8647
2019-05-05T01:06:55.270Z,98.9410
2019-05-05T01:07:58.314Z,98.9426
2019-05-05T01:09:04.208Z,98.9792
2019-05-05T01:10:07.283Z,99.0234
2019-05-05T01:11:11.277Z,98.9960
2019-05-05T01:12:14.936Z,98.9593
2019-05-05T01:13:18.304Z,99.0249
2019-05-05T01:14:21.323Z,99.1348
2019-05-05T01:15:25.550Z,99.1516
2019-05-05T01:16:29.295Z,99.2752
2019-05-05T01:17:34.398Z,99.3210
2019-05-05T01:18:38.270Z,99.3759
2019-05-05T01:19:41.327Z,99.3271
2019-05-05T01:20:45.278Z,99.3484
2019-05-05T01:21:48.419Z,99.3667
2019-05-05T01:22:51.273Z,99.4186
2019-05-05T01:23:55.299Z,99.3957
2019-05-05T01:24:58.298Z,99.5788
2019-05-05T01:26:02.278Z,99.4232
2019-05-05T01:27:05.307Z,99.4324
2019-05-05T01:28:09.289Z,99.4995
2019-05-05T01:29:12.319Z,99.5743
2019-05-05T01:30:15.312Z,99.6384
2019-05-05T01:31:18.331Z,99.6475
2019-05-05T01:32:21.298Z,99.6139
2019-05-05T01:33:25.278Z,99.7650
2019-05-05T01:34:28.271Z,99.7284
2019-05-05T01:35:34.028Z,99.8260
2019-05-05T01:36:37.285Z,99.7482
2019-05-05T01:37:44.174Z,99.7925
2019-05-05T01:38:49.392Z,99.7162
2019-05-05T01:39:54.118Z,99.7925
2019-05-05T01:40:58.323Z,99.7162
2019-05-05T01:42:01.309Z,99.7101
2019-05-05T01:43:05.434Z,99.7482
2019-05-05T01:44:09.307Z,99.7513
2019-05-05T01:45:12.286Z,99.6872
2019-05-05T01:46:16.307Z,99.7391
2019-05-05T01:47:19.320Z,99.7055
2019-05-05T01:48:24.782Z,99.7436
2019-05-05T01:49:28.281Z,99.8383
2019-05-05T01:50:32.310Z,99.8535
2019-05-05T01:51:35.624Z,99.7665
2019-05-05T01:52:39.302Z,99.7665
2019-05-05T01:53:44.255Z,99.8199
2019-05-05T01:54:47.273Z,99.8810
2019-05-05T01:55:51.299Z,99.8032
2019-05-05T01:56:55.122Z,99.7925
2019-05-05T01:57:59.309Z,99.8260
2019-05-05T01:59:02.326Z,99.8627
2019-05-05T02:00:05.293Z,99.8520
2019-05-05T02:01:09.278Z,99.8108
2019-05-05T02:02:14.426Z,99.8199
2019-05-05T02:03:18.288Z,99.8627
2019-05-05T02:04:20.314Z,99.7971
2019-05-05T02:05:24.310Z,99.7986
2019-05-05T02:06:27.288Z,99.8627
2019-05-05T02:07:30.315Z,99.8154
2019-05-05T02:08:34.924Z,99.7574
2019-05-05T02:09:38.282Z,99.7604
2019-05-05T02:10:42.290Z,99.7879
2019-05-05T02:11:45.444Z,99.7803
2019-05-05T02:12:49.297Z,99.7925
2019-05-05T02:13:54.419Z,99.8077
2019-05-05T02:14:58.253Z,99.7971
2019-05-05T02:16:04.409Z,99.8108
2019-05-05T02:17:08.292Z,99.7787
2019-05-05T02:18:12.340Z,99.8032
2019-05-05T02:19:15.271Z,99.8291
2019-05-05T02:20:28.849Z,99.7559
2019-05-05T02:21:27.317Z,99.7787
2019-05-05T02:22:30.297Z,99.8108
2019-05-05T02:23:35.144Z,99.7848
2019-05-05T02:24:38.279Z,99.7696
2019-05-05T02:25:42.323Z,99.7345
2019-05-05T02:26:45.618Z,99.6963
2019-05-05T02:27:49.278Z,99.6841
2019-05-05T02:28:54.141Z,99.7299
2019-05-05T02:29:57.277Z,99.8474
2019-05-05T02:31:01.282Z,99.8306
2019-05-05T02:32:06.327Z,99.7833
2019-05-05T02:33:10.303Z,99.8444
2019-05-05T02:34:16.261Z,99.8749
2019-05-05T02:35:20.369Z,99.8535
2019-05-05T02:36:25.734Z,99.8215
2019-05-05T02:37:29.305Z,99.8795
2019-05-05T02:38:35.464Z,99.8108
2019-05-05T02:39:45.871Z,99.8062
2019-05-05T02:40:47.303Z,99.7421
2019-05-05T02:41:50.316Z,99.7345
2019-05-05T02:42:54.995Z,99.8535
2019-05-05T02:43:58.317Z,99.7971
2019-05-05T02:45:01.405Z,99.7742
2019-05-05T02:46:05.593Z,99.8260
2019-05-05T02:47:09.268Z,99.9252
2019-05-05T02:48:15.147Z,99.8947
2019-05-05T02:49:19.306Z,99.8306
2019-05-05T02:50:25.092Z,99.8123
2019-05-05T02:51:27.314Z,99.8489
2019-05-05T02:52:30.265Z,99.7742
2019-05-05T02:53:34.336Z,99.8398
2019-05-05T02:54:37.297Z,99.9268
2019-05-05T02:55:41.352Z,99.8337
2019-05-05T02:56:44.254Z,99.8108
2019-05-05T02:57:48.295Z,99.8535
2019-05-05T02:58:51.282Z,99.8474
2019-05-05T02:59:54.310Z,99.9496
2019-05-05T03:00:58.303Z,99.9588
2019-05-05T03:02:01.305Z,99.8489
2019-05-05T03:03:05.264Z,99.8032
2019-05-05T03:04:08.272Z,99.8077
2019-05-05T03:05:14.169Z,99.8016
2019-05-05T03:06:17.299Z,99.7650
2019-05-05T03:07:20.308Z,99.8703
2019-05-05T03:08:24.327Z,99.8901
2019-05-05T03:09:27.308Z,99.8749
2019-05-05T03:10:31.264Z,99.7299
2019-05-05T03:11:34.443Z,99.7238
2019-05-05T03:12:38.298Z,99.8718
2019-05-05T03:13:41.283Z,99.8032
2019-05-05T03:14:44.655Z,99.7604
2019-05-05T03:15:48.293Z,99.8932
2019-05-05T03:16:51.340Z,99.9435
2019-05-05T03:17:55.271Z,99.9619
2019-05-05T03:18:58.330Z,99.8627
2019-05-05T03:20:04.086Z,99.8581
2019-05-05T03:21:07.540Z,99.8672
2019-05-05T03:22:11.321Z,99.6689
2019-05-05T03:23:15.290Z,99.7147
2019-05-05T03:24:18.285Z,99.5972
2019-05-05T03:25:24.063Z,99.6506
2019-05-05T03:26:26.310Z,99.8215
2019-05-05T03:27:30.319Z,99.7238
2019-05-05T03:28:34.442Z,99.6612
2019-05-05T03:29:37.274Z,99.7650
2019-05-05T03:30:41.301Z,99.7925
2019-05-05T03:31:45.724Z,99.9390
2019-05-05T03:32:49.303Z,99.8810
2019-05-05T03:33:54.951Z,99.8489
2019-05-05T03:34:58.275Z,99.8795
2019-05-05T03:36:03.436Z,99.9359
2019-05-05T03:37:07.279Z,99.9710
2019-05-05T03:38:11.342Z,99.7696
2019-05-05T03:39:14.460Z,99.8108
2019-05-05T03:40:17.302Z,99.7208
2019-05-05T03:41:20.288Z,99.7024
2019-05-05T03:42:24.564Z,99.7467
2019-05-05T03:43:28.352Z,99.7345
2019-05-05T03:44:33.435Z,99.7024
2019-05-05T03:45:39.351Z,99.6689
2019-05-05T03:46:44.284Z,99.5315
2019-05-05T03:47:50.347Z,99.6094
2019-05-05T03:48:54.142Z,99.6506
2019-05-05T03:49:57.290Z,99.6094
2019-05-05T03:51:00.256Z,99.6750
2019-05-05T03:52:04.878Z,99.5636
2019-05-05T03:53:08.293Z,99.5682
2019-05-05T03:54:11.297Z,99.5407
2019-05-05T03:55:15.339Z,99.5590
2019-05-05T03:56:18.278Z,99.3866
2019-05-05T03:57:24.462Z,99.4766
2019-05-05T03:58:28.259Z,99.4766
2019-05-05T03:59:31.335Z,99.4125
2019-05-05T04:00:36.294Z,99.3133
2019-05-05T04:01:39.300Z,99.2660
2019-05-05T04:02:44.540Z,99.2798
2019-05-05T04:03:48.296Z,99.1211
2019-05-05T04:04:54.803Z,99.0890
2019-05-05T04:05:58.296Z,99.1348
2019-05-05T04:07:01.320Z,98.9319
2019-05-05T04:08:05.281Z,98.9776
2019-05-05T04:09:08.312Z,99.0051
2019-05-05T04:10:14.072Z,99.0509
2019-05-05T04:11:17.301Z,99.0417
2019-05-05T04:12:21.287Z,98.9822
2019-05-05T04:13:24.332Z,99.0005
2019-05-05T04:14:27.325Z,98.9746
2019-05-05T04:15:31.329Z,98.9014
2019-05-05T04:16:34.327Z,98.9197
2019-05-05T04:17:38.284Z,98.9456
2019-05-05T04:18:43.473Z,98.8586
2019-05-05T04:19:47.303Z,98.7671
2019-05-05T04:20:50.305Z,98.6084
2019-05-05T04:21:53.710Z,98.4848
2019-05-05T04:22:58.220Z,98.5931
2019-05-05T04:24:01.295Z,98.0987
2019-05-05T04:25:05.348Z,98.0362
2019-05-05T04:26:08.302Z,98.0346
2019-05-05T04:27:14.459Z,97.9812
2019-05-05T04:28:18.290Z,97.9477
2019-05-05T04:29:24.424Z,98.1552
2019-05-05T04:30:28.341Z,97.9797
2019-05-05T04:31:30.256Z,98.1048
2019-05-05T04:32:34.876Z,97.8943
2019-05-05T04:33:38.272Z,97.8393
2019-05-05T04:34:43.923Z,97.8790
2019-05-05T04:35:47.316Z,98.0865
2019-05-05T04:36:50.276Z,97.8347
2019-05-05T04:37:54.481Z,98.0453
2019-05-05T04:38:58.305Z,97.8759
2019-05-05T04:40:04.112Z,97.6974
2019-05-05T04:41:05.981Z,97.6822
2019-05-05T04:42:10.313Z,97.7157
2019-05-05T04:43:14.329Z,97.5769
2019-05-05T04:44:18.062Z,97.5463
2019-05-05T04:45:21.267Z,97.6608
2019-05-05T04:46:24.597Z,97.5540
2019-05-05T04:47:27.285Z,97.5357
2019-05-05T04:48:30.287Z,97.5586
2019-05-05T04:49:34.282Z,97.5311
2019-05-05T04:50:37.288Z,97.6196
2019-05-05T04:51:47.796Z,97.6516
2019-05-05T04:52:48.307Z,97.5998
2019-05-05T04:53:51.292Z,97.6516
2019-05-05T04:54:55.806Z,97.4395
2019-05-05T04:55:58.285Z,97.4029
2019-05-05T04:57:04.370Z,97.2259
2019-05-05T04:58:08.259Z,97.3358
2019-05-05T04:59:11.274Z,97.3114
2019-05-05T05:00:14.302Z,97.3449
2019-05-05T05:01:17.307Z,97.2717
2019-05-05T05:02:23.505Z,97.2213
2019-05-05T05:03:27.296Z,97.5418
2019-05-05T05:04:31.302Z,97.2396
2019-05-05T05:05:34.296Z,97.2335
2019-05-05T05:06:37.289Z,97.1969
2019-05-05T05:07:41.355Z,96.8353
2019-05-05T05:08:44.310Z,96.9635
2019-05-05T05:09:48.324Z,97.2015
2019-05-05T05:10:51.355Z,97.1161
2019-05-05T05:11:55.285Z,96.9879
2019-05-05T05:12:58.314Z,96.9009
2019-05-05T05:14:01.282Z,96.6613
2019-05-05T05:15:05.303Z,96.0342
2019-05-05T05:16:08.290Z,95.9808
2019-05-05T05:17:14.035Z,96.0388
2019-05-05T05:18:17.321Z,95.7290
2019-05-05T05:19:21.298Z,95.9258
2019-05-05T05:20:24.723Z,96.6155
2019-05-05T05:21:28.309Z,96.5118
2019-05-05T05:22:33.438Z,96.2997
2019-05-05T05:23:37.333Z,95.8938
2019-05-05T05:24:41.330Z,96.1730
2019-05-05T05:25:44.323Z,96.3912
2019-05-05T05:26:48.314Z,96.2463
2019-05-05T05:27:53.478Z,96.4187
2019-05-05T05:28:57.341Z,96.3409
2019-05-05T05:30:01.294Z,96.8353
2019-05-05T05:31:04.327Z,96.4431
2019-05-05T05:32:07.317Z,96.0586
2019-05-05T05:33:10.315Z,96.2905
2019-05-05T05:34:14.887Z,96.7086
2019-05-05T05:35:18.262Z,96.4828
2019-05-05T05:36:21.284Z,96.4752
2019-05-05T05:37:25.274Z,96.0723
2019-05-05T05:38:28.262Z,96.0037
2019-05-05T05:39:33.549Z,96.0815
2019-05-05T05:40:37.287Z,96.0571
2019-05-05T05:41:43.456Z,96.3790
2019-05-05T05:42:47.288Z,96.1624
2019-05-05T05:43:50.300Z,96.4843
2019-05-05T05:44:54.354Z,96.3317
2019-05-05T05:45:57.287Z,96.5164
2019-05-05T05:47:03.473Z,96.2188
2019-05-05T05:48:07.274Z,96.1822
2019-05-05T05:49:13.405Z,96.4477
2019-05-05T05:50:17.324Z,96.3745
2019-05-05T05:51:20.301Z,96.4477
2019-05-05T05:52:24.392Z,95.7885
2019-05-05T05:53:27.284Z,96.2951
2019-05-05T05:54:31.308Z,96.5347
2019-05-05T05:55:34.406Z,96.0754
2019-05-05T05:56:38.319Z,96.0128
2019-05-05T05:57:41.316Z,96.4553
2019-05-05T05:58:44.294Z,96.3455
2019-05-05T05:59:48.290Z,96.3790
2019-05-05T06:00:51.326Z,96.2768
2019-05-05T06:02:08.400Z,96.7773
2019-05-05T06:03:03.974Z,96.2631
2019-05-05T06:04:06.282Z,95.9701
2019-05-05T06:05:09.310Z,95.9487
2019-05-05T06:06:10.205Z,96.0937
2019-05-05T06:07:14.419Z,96.1135
2019-05-05T06:08:16.192Z,95.8526
2019-05-05T06:09:20.273Z,95.3765
2019-05-05T06:10:27.056Z,95.7931
2019-05-05T06:11:31.376Z,95.9808
2019-05-05T06:12:34.296Z,94.1451
2019-05-05T06:13:37.292Z,94.9401
2019-05-05T06:14:41.319Z,95.0744
2019-05-05T06:15:44.543Z,95.2941
2019-05-05T06:16:48.341Z,93.3303
2019-05-05T06:17:51.266Z,93.8506
2019-05-05T06:18:55.272Z,94.2779
2019-05-05T06:19:58.276Z,93.5897
2019-05-05T06:21:01.289Z,94.3694
2019-05-05T06:22:05.297Z,94.0063
2019-05-05T06:23:08.312Z,94.1863
2019-05-05T06:24:13.645Z,94.3603
2019-05-05T06:25:17.308Z,94.3099
2019-05-05T06:26:23.876Z,94.2275
2019-05-05T06:27:27.368Z,94.2214
2019-05-05T06:28:30.315Z,93.6400
2019-05-05T06:29:34.619Z,92.9686
2019-05-05T06:30:38.293Z,92.7520
2019-05-05T06:31:41.268Z,92.1721
2019-05-05T06:32:45.780Z,92.6650
2019-05-05T06:33:49.283Z,92.6848
2019-05-05T06:34:53.478Z,92.7565
2019-05-05T06:35:57.304Z,93.9391
2019-05-05T06:37:01.316Z,94.1207
2019-05-05T06:38:04.781Z,93.4997
2019-05-05T06:39:08.321Z,92.4178
2019-05-05T06:40:11.266Z,93.0678
2019-05-05T06:41:15.287Z,93.2799
2019-05-05T06:42:18.260Z,93.1838
2019-05-05T06:43:23.688Z,92.9824
2019-05-05T06:44:28.316Z,93.3379
2019-05-05T06:45:31.293Z,93.8232
2019-05-05T06:46:35.290Z,93.0220
2019-05-05T06:47:38.270Z,93.7774
2019-05-05T06:48:43.827Z,94.0124
2019-05-05T06:49:47.277Z,93.1731
2019-05-05T06:50:50.304Z,93.0724
2019-05-05T06:51:54.788Z,92.7565
2019-05-05T06:52:58.325Z,92.8679
2019-05-05T06:54:04.498Z,93.1869
2019-05-05T06:55:08.274Z,92.0943
2019-05-05T06:56:14.383Z,91.7510
2019-05-05T06:57:18.293Z,92.1218
2019-05-05T06:58:21.394Z,91.8471
2019-05-05T06:59:25.256Z,92.8252
2019-05-05T07:00:28.334Z,93.0861
2019-05-05T07:01:33.811Z,93.2235
2019-05-05T07:02:37.310Z,92.6436
2019-05-05T07:03:41.289Z,93.2708
2019-05-05T07:04:44.535Z,93.7377
2019-05-05T07:05:48.266Z,93.7789
2019-05-05T07:06:56.712Z,93.0556
2019-05-05T07:08:00.288Z,92.7611
2019-05-05T07:09:05.440Z,92.9992
2019-05-05T07:10:09.305Z,92.0439
2019-05-05T07:11:14.552Z,93.6584
2019-05-05T07:12:18.306Z,92.7703
2019-05-05T07:13:21.261Z,93.0648
2019-05-05T07:14:25.314Z,93.0404
2019-05-05T07:15:28.281Z,92.4926
2019-05-05T07:16:34.532Z,93.0556
2019-05-05T07:17:38.265Z,92.6802
2019-05-05T07:18:44.487Z,92.4468
2019-05-05T07:19:47.339Z,93.3654
2019-05-05T07:20:49.589Z,93.1105
2019-05-05T07:21:53.949Z,93.5714
2019-05-05T07:23:02.258Z,93.6553
2019-05-05T07:24:06.348Z,93.8750
2019-05-05T07:25:09.314Z,93.6919
2019-05-05T07:26:14.395Z,93.9055
2019-05-05T07:27:18.276Z,93.4310
2019-05-05T07:28:23.420Z,92.9870
2019-05-05T07:29:27.292Z,92.7840
2019-05-05T07:30:30.367Z,93.5042
2019-05-05T07:31:34.384Z,93.3806
2019-05-05T07:32:37.321Z,93.1975
2019-05-05T07:33:41.313Z,91.9829
2019-05-05T07:34:44.266Z,92.1981
2019-05-05T07:35:56.890Z,92.2728
2019-05-05T07:36:55.268Z,92.7977
2019-05-05T07:37:58.290Z,93.0007
2019-05-05T07:39:03.793Z,92.9351
2019-05-05T07:40:07.289Z,93.6187
2019-05-05T07:41:11.308Z,93.9422
2019-05-05T07:42:14.287Z,93.4752
2019-05-05T07:43:17.253Z,93.3745
2019-05-05T07:44:28.393Z,93.8521
2019-05-05T07:45:29.315Z,93.0220
2019-05-05T07:46:34.644Z,92.8344
2019-05-05T07:47:38.325Z,92.8679
2019-05-05T07:48:44.149Z,93.4066
2019-05-05T07:49:47.304Z,93.1090
2019-05-05T07:51:01.185Z,93.0327
2019-05-05T07:51:58.361Z,93.6950
2019-05-05T07:53:12.294Z,93.2143
2019-05-05T07:54:09.305Z,93.9239
2019-05-05T07:55:14.246Z,93.1273
2019-05-05T07:56:18.289Z,93.5943
2019-05-05T07:57:21.342Z,93.6675
2019-05-05T07:58:24.371Z,93.3166
2019-05-05T07:59:28.274Z,92.8130
2019-05-05T08:00:31.266Z,91.9234
2019-05-05T08:01:35.325Z,91.2016
2019-05-05T08:02:38.300Z,89.5537
2019-05-05T08:03:44.384Z,89.6910
2019-05-05T08:04:47.291Z,90.6294
2019-05-05T08:05:50.301Z,90.2266
2019-05-05T08:06:54.299Z,89.9931
2019-05-05T08:07:57.351Z,89.9565
2019-05-05T08:09:01.302Z,90.4784
2019-05-05T08:10:04.649Z,89.3965
2019-05-05T08:11:08.334Z,89.0730
2019-05-05T08:12:13.539Z,88.8060
2019-05-05T08:13:17.343Z,89.2653
2019-05-05T08:14:21.286Z,89.7124
2019-05-05T08:15:24.295Z,88.3497
2019-05-05T08:16:28.286Z,88.6274
2019-05-05T08:17:31.305Z,88.9799
2019-05-05T08:18:35.353Z,87.7089
2019-05-05T08:19:38.328Z,86.6148
2019-05-05T08:20:41.337Z,86.8666
2019-05-05T08:21:45.297Z,85.3651
2019-05-05T08:22:48.298Z,87.2785
2019-05-05T08:23:54.020Z,86.9718
2019-05-05T08:24:57.313Z,86.3859
2019-05-05T08:26:01.289Z,86.8833
2019-05-05T08:27:04.622Z,86.3905
2019-05-05T08:28:08.305Z,86.3981
2019-05-05T08:29:13.630Z,86.7750
2019-05-05T08:30:17.312Z,86.9261
2019-05-05T08:31:21.295Z,86.5827
2019-05-05T08:32:24.295Z,87.3014
2019-05-05T08:33:28.318Z,85.7267
2019-05-05T08:34:31.317Z,84.6174
2019-05-05T08:35:34.499Z,85.4826
2019-05-05T08:36:39.467Z,86.3844
2019-05-05T08:37:43.648Z,84.5090
2019-05-05T08:38:47.376Z,84.3061
2019-05-05T08:39:50.335Z,83.1525
2019-05-05T08:40:54.473Z,85.0340
2019-05-05T08:41:58.295Z,84.4068
2019-05-05T08:43:01.261Z,84.5228
2019-05-05T08:44:05.326Z,85.1225
2019-05-05T08:45:08.324Z,83.5325
2019-05-05T08:46:11.326Z,83.2959
2019-05-05T08:47:14.319Z,83.9780
2019-05-05T08:48:18.327Z,84.6143
2019-05-05T08:49:21.320Z,83.1525
2019-05-05T08:50:26.986Z,84.1657
2019-05-05T08:51:31.318Z,84.0558
2019-05-05T08:52:34.401Z,83.8895
2019-05-05T08:53:44.719Z,84.4709
2019-05-05T08:54:46.332Z,86.0838
2019-05-05T08:55:50.305Z,84.4755
2019-05-05T08:56:54.933Z,84.6403
2019-05-05T08:57:58.347Z,84.8600
2019-05-05T08:59:03.668Z,85.3819
2019-05-05T09:00:07.359Z,84.9653
2019-05-05T09:01:11.300Z,83.9094
2019-05-05T09:02:15.026Z,84.5365
2019-05-05T09:03:19.297Z,83.6530
2019-05-05T09:04:24.129Z,83.6713
2019-05-05T09:05:28.382Z,83.2074
2019-05-05T09:06:34.146Z,83.2990
2019-05-05T09:07:38.344Z,82.1912
2019-05-05T09:08:44.074Z,83.5508
2019-05-05T09:09:47.299Z,82.2965
2019-05-05T09:10:53.040Z,82.4430
2019-05-05T09:11:58.343Z,82.1057
2019-05-05T09:13:03.592Z,81.0849
2019-05-05T09:14:07.302Z,81.2573
2019-05-05T09:15:10.289Z,80.7004
2019-05-05T09:16:14.588Z,78.0682
2019-05-05T09:17:18.305Z,81.0285
2019-05-05T09:18:24.454Z,79.7665
2019-05-05T09:19:28.300Z,78.6572
2019-05-05T09:20:31.272Z,79.3713
2019-05-05T09:21:34.619Z,78.8357
2019-05-05T09:22:38.309Z,78.8083
2019-05-05T09:23:56.595Z,78.8647
2019-05-05T09:24:50.304Z,78.2727
2019-05-05T09:25:54.342Z,76.3561
2019-05-05T09:26:57.330Z,77.1099
2019-05-05T09:28:03.026Z,76.5850
2019-05-05T09:29:08.322Z,76.5667
2019-05-05T09:30:11.309Z,74.8394
2019-05-05T09:31:15.312Z,76.4096
2019-05-05T09:32:18.355Z,77.4319
2019-05-05T09:33:24.625Z,78.5977
2019-05-05T09:34:28.300Z,77.9477
2019-05-05T09:35:31.321Z,78.1079
2019-05-05T09:36:35.299Z,76.5988
2019-05-05T09:37:38.342Z,77.9385
2019-05-05T09:38:42.286Z,77.6410
2019-05-05T09:39:45.299Z,76.0296
2019-05-05T09:40:49.326Z,77.2625
2019-05-05T09:41:53.610Z,76.6888
2019-05-05T09:42:57.362Z,75.4253
2019-05-05T09:44:01.277Z,74.8806
2019-05-05T09:45:04.805Z,74.3358
2019-05-05T09:46:08.336Z,74.7890
2019-05-05T09:47:13.482Z,75.3811
2019-05-05T09:48:16.337Z,75.4635
2019-05-05T09:49:19.349Z,74.2245
2019-05-05T09:50:23.695Z,73.8598
2019-05-05T09:51:27.294Z,75.7916
2019-05-05T09:52:30.295Z,74.6563
2019-05-05T09:53:34.593Z,74.9584
2019-05-05T09:54:38.322Z,74.3542
2019-05-05T09:55:44.213Z,74.4915
2019-05-05T09:56:47.348Z,75.2392
2019-05-05T09:57:50.277Z,76.5148
2019-05-05T09:58:54.545Z,76.5667
2019-05-05T09:59:58.287Z,76.2768
2019-05-05T10:01:03.952Z,75.2926
2019-05-05T10:02:07.301Z,75.3994
2019-05-05T10:03:11.285Z,74.5876
2019-05-05T10:04:14.358Z,76.5469
2019-05-05T10:05:17.284Z,74.0917
2019-05-05T10:06:21.310Z,74.5052
2019-05-05T10:07:24.426Z,74.3862
2019-05-05T10:08:28.314Z,75.0332
2019-05-05T10:09:31.301Z,73.0907
2019-05-05T10:10:34.347Z,73.8735
2019-05-05T10:11:37.315Z,73.6110
2019-05-05T10:12:40.272Z,73.2082
2019-05-05T10:13:44.373Z,73.4463
2019-05-05T10:14:47.322Z,73.9406
2019-05-05T10:15:51.320Z,72.9351
2019-05-05T10:16:54.303Z,72.1065
2019-05-05T10:17:58.333Z,72.4498
2019-05-05T10:19:01.296Z,71.1498
2019-05-05T10:20:04.356Z,71.7296
2019-05-05T10:21:08.267Z,70.9850
2019-05-05T10:22:11.326Z,72.1386
2019-05-05T10:23:15.324Z,72.9305
2019-05-05T10:24:27.813Z,73.3288
2019-05-05T10:25:25.375Z,72.6238
2019-05-05T10:26:28.315Z,73.6584
2019-05-05T10:27:42.643Z,73.1182
2019-05-05T10:28:39.296Z,74.2107
2019-05-05T10:29:44.105Z,73.6446
2019-05-05T10:30:48.317Z,73.4569
2019-05-05T10:31:50.328Z,73.0770
2019-05-05T10:32:54.633Z,72.5368
2019-05-05T10:33:58.286Z,72.8527
2019-05-05T10:35:01.279Z,71.9448
2019-05-05T10:36:05.339Z,71.5282
2019-05-05T10:37:08.268Z,72.2118
2019-05-05T10:38:14.107Z,71.6060
2019-05-05T10:39:17.304Z,70.5486
2019-05-05T10:40:21.306Z,71.6167
2019-05-05T10:41:24.365Z,68.8502
2019-05-05T10:42:27.285Z,70.1183
2019-05-05T10:43:31.302Z,69.9077
2019-05-05T10:44:34.263Z,71.0063
2019-05-05T10:45:38.331Z,70.9010
2019-05-05T10:46:41.360Z,71.1986
2019-05-05T10:47:45.297Z,71.9692
2019-05-05T10:48:47.339Z,72.2210
2019-05-05T10:49:50.289Z,72.3201
2019-05-05T10:50:54.324Z,72.3308
2019-05-05T10:51:57.301Z,72.2850
2019-05-05T10:53:01.325Z,73.0571
2019-05-05T10:54:04.264Z,74.2702
2019-05-05T10:55:08.309Z,73.7072
2019-05-05T10:56:13.528Z,73.8735
2019-05-05T10:57:18.499Z,74.0505
2019-05-05T10:58:24.259Z,73.9773
2019-05-05T10:59:28.303Z,74.3801
2019-05-05T11:00:33.754Z,74.8241
2019-05-05T11:01:37.332Z,76.0113
2019-05-05T11:02:41.337Z,75.2438
2019-05-05T11:03:44.751Z,75.6313
2019-05-05T11:04:48.305Z,75.6222
2019-05-05T11:05:53.837Z,74.4549
2019-05-05T11:06:57.267Z,74.4091
2019-05-05T11:08:01.324Z,73.7179
2019-05-05T11:09:04.455Z,73.6843
2019-05-05T11:10:08.326Z,74.5953
2019-05-05T11:11:13.563Z,74.7005
2019-05-05T11:12:17.304Z,75.9747
2019-05-05T11:13:21.305Z,73.0526
2019-05-05T11:14:24.317Z,71.4275
2019-05-05T11:15:28.288Z,71.4275
2019-05-05T11:16:31.348Z,70.8568
2019-05-05T11:17:35.305Z,71.3497
2019-05-05T11:18:39.376Z,71.5389
2019-05-05T11:19:44.115Z,71.5480
2019-05-05T11:20:49.303Z,70.9163
2019-05-05T11:21:54.007Z,70.7408
2019-05-05T11:22:56.291Z,71.0796
2019-05-05T11:23:59.353Z,71.0201
2019-05-05T11:25:05.060Z,71.8120
2019-05-05T11:26:08.293Z,71.8776
2019-05-05T11:27:11.303Z,72.4483
2019-05-05T11:28:15.305Z,69.8634
2019-05-05T11:29:18.331Z,71.0567
2019-05-05T11:30:24.916Z,71.9905
2019-05-05T11:31:30.324Z,71.9738
2019-05-05T11:32:34.305Z,70.6584
2019-05-05T11:33:37.362Z,71.1803
2019-05-05T11:34:40.302Z,71.3497
2019-05-05T11:35:44.474Z,70.5913
2019-05-05T11:36:47.294Z,69.5109
2019-05-05T11:37:51.338Z,68.8380
2019-05-05T11:38:54.266Z,70.4295
2019-05-05T11:39:58.354Z,70.0313
2019-05-05T11:41:01.279Z,67.4327
2019-05-05T11:42:04.528Z,66.9322
2019-05-05T11:43:07.407Z,67.6234
2019-05-05T11:44:10.285Z,68.5069
2019-05-05T11:45:14.903Z,67.6707
2019-05-05T11:46:20.298Z,67.3869
2019-05-05T11:47:24.542Z,67.5242
2019-05-05T11:48:27.467Z,66.5843
2019-05-05T11:49:30.303Z,67.0878
2019-05-05T11:50:34.331Z,65.8854
2019-05-05T11:51:37.333Z,66.5675
2019-05-05T11:52:41.318Z,64.4556
2019-05-05T11:53:44.821Z,63.9933
2019-05-05T11:54:48.325Z,64.3412
2019-05-05T11:55:51.311Z,63.8621
2019-05-05T11:56:54.283Z,63.6194
2019-05-05T11:57:58.299Z,60.6622
2019-05-05T11:59:01.312Z,61.1017
2019-05-05T12:00:05.281Z,61.2421
2019-05-05T12:01:08.349Z,61.3764
2019-05-05T12:02:13.976Z,61.6037
2019-05-05T12:03:17.292Z,59.9695
2019-05-05T12:04:20.312Z,60.7080
2019-05-05T12:05:24.450Z,60.0031
2019-05-05T12:06:27.339Z,60.9323
2019-05-05T12:07:31.292Z,59.5178
2019-05-05T12:08:34.623Z,59.1043
2019-05-05T12:09:38.295Z,59.4156
2019-05-05T12:10:41.298Z,60.2167
2019-05-05T12:11:44.345Z,59.5499
2019-05-05T12:12:48.315Z,59.6994
2019-05-05T12:13:51.285Z,60.3815
2019-05-05T12:14:55.313Z,60.5829
2019-05-05T12:15:58.295Z,60.7309
2019-05-05T12:17:04.439Z,59.5209
2019-05-05T12:18:08.334Z,59.8428
2019-05-05T12:19:11.304Z,61.3703
2019-05-05T12:20:15.349Z,62.1302
2019-05-05T12:21:18.313Z,62.8641
2019-05-05T12:22:23.621Z,62.9633
2019-05-05T12:23:27.268Z,61.8936
2019-05-05T12:24:31.301Z,59.7040
2019-05-05T12:25:34.324Z,61.0544
2019-05-05T12:26:37.269Z,57.7951
2019-05-05T12:27:41.361Z,58.2620
2019-05-05T12:28:44.282Z,57.8149
2019-05-05T12:29:48.312Z,58.6618
2019-05-05T12:30:51.278Z,58.9807
2019-05-05T12:31:55.327Z,57.4029
2019-05-05T12:32:58.325Z,56.5332
2019-05-05T12:34:01.316Z,56.5194
2019-05-05T12:35:05.317Z,55.5016
2019-05-05T12:36:08.320Z,54.3862
2019-05-05T12:37:14.155Z,55.7443
2019-05-05T12:38:17.302Z,56.1578
2019-05-05T12:39:21.331Z,54.3801
2019-05-05T12:40:24.687Z,54.8028
2019-05-05T12:41:28.313Z,54.5876
2019-05-05T12:42:32.285Z,55.2331
2019-05-05T12:43:35.304Z,52.3674
2019-05-05T12:44:39.289Z,52.5917
2019-05-05T12:45:43.931Z,51.8959
2019-05-05T12:46:47.322Z,53.0892
2019-05-05T12:47:50.319Z,55.5795
2019-05-05T12:48:54.268Z,55.7046
2019-05-05T12:49:58.315Z,54.6502
2019-05-05T12:51:01.290Z,54.6151
2019-05-05T12:52:05.270Z,54.7509